sensor_id;sensor_type;location;lat;lon;timestamp;pressure;altitude;pressure_sealevel;temperature;humidity
19624;BME280;9959;49.798;9.928;2023-02-13T00:00:46;101787.44;;;3.09;100.00
19624;BME280;9959;49.798;9.928;2023-02-13T00:03:13;101788.25;;;3.22;100.00
19624;BME280;9959;49.798;9.928;2023-02-13T00:05:40;101784.25;;;3.03;100.00
19624;BME280;9959;49.798;9.928;2023-02-13T00:08:07;101784.66;;;3.10;100.00
19624;BME280;9959;49.798;9.928;2023-02-13T00:10:34;101781.63;;;2.91;100.00
19624;BME280;9959;49.798;9.928;2023-02-13T00:13:02;101780.25;;;2.85;100.00
19624;BME280;9959;49.798;9.928;2023-02-13T00:15:29;101774.44;;;2.67;100.00
19624;BME280;9959;49.798;9.928;2023-02-13T00:17:56;101783.41;;;2.54;100.00
19624;BME280;9959;49.798;9.928;2023-02-13T00:20:22;101781.59;;;2.54;100.00
19624;BME280;9959;49.798;9.928;2023-02-13T00:22:49;101783.53;;;2.40;100.00
19624;BME280;9959;49.798;9.928;2023-02-13T00:25:16;101780.44;;;2.33;100.00
19624;BME280;9959;49.798;9.928;2023-02-13T00:27:43;101780.44;;;2.46;100.00
19624;BME280;9959;49.798;9.928;2023-02-13T00:30:10;101773.28;;;2.59;100.00
19624;BME280;9959;49.798;9.928;2023-02-13T00:32:37;101773.41;;;2.32;100.00
19624;BME280;9959;49.798;9.928;2023-02-13T00:35:04;101777.88;;;2.19;100.00
19624;BME280;9959;49.798;9.928;2023-02-13T00:37:32;101774.25;;;2.07;100.00
19624;BME280;9959;49.798;9.928;2023-02-13T00:40:03;101775.00;;;2.09;100.00
19624;BME280;9959;49.798;9.928;2023-02-13T00:42:30;101775.22;;;2.06;100.00
19624;BME280;9959;49.798;9.928;2023-02-13T00:45:00;101769.00;;;1.93;100.00
19624;BME280;9959;49.798;9.928;2023-02-13T00:47:27;101768.81;;;2.21;100.00
19624;BME280;9959;49.798;9.928;2023-02-13T00:52:24;101774.56;;;1.90;100.00
19624;BME280;9959;49.798;9.928;2023-02-13T00:54:50;101771.16;;;1.88;100.00
19624;BME280;9959;49.798;9.928;2023-02-13T00:57:17;101770.09;;;1.90;100.00
19624;BME280;9959;49.798;9.928;2023-02-13T00:59:44;101771.75;;;1.79;100.00
19624;BME280;9959;49.798;9.928;2023-02-13T01:02:11;101764.75;;;1.78;100.00
19624;BME280;9959;49.798;9.928;2023-02-13T01:04:41;101779.19;;;1.74;100.00
19624;BME280;9959;49.798;9.928;2023-02-13T01:07:08;101774.06;;;1.70;100.00
19624;BME280;9959;49.798;9.928;2023-02-13T01:09:34;101773.97;;;1.72;100.00
19624;BME280;9959;49.798;9.928;2023-02-13T01:12:02;101769.16;;;1.64;100.00
19624;BME280;9959;49.798;9.928;2023-02-13T01:14:29;101775.50;;;1.49;100.00
19624;BME280;9959;49.798;9.928;2023-02-13T01:16:56;101770.38;;;1.33;100.00
19624;BME280;9959;49.798;9.928;2023-02-13T01:19:23;101773.56;;;1.39;100.00
19624;BME280;9959;49.798;9.928;2023-02-13T01:21:49;101778.81;;;1.26;100.00
19624;BME280;9959;49.798;9.928;2023-02-13T01:24:16;101776.38;;;1.23;100.00
19624;BME280;9959;49.798;9.928;2023-02-13T01:26:43;101785.97;;;1.11;100.00
19624;BME280;9959;49.798;9.928;2023-02-13T01:29:11;101769.75;;;1.16;100.00
19624;BME280;9959;49.798;9.928;2023-02-13T01:31:39;101777.50;;;1.19;100.00
19624;BME280;9959;49.798;9.928;2023-02-13T01:34:06;101777.00;;;0.99;100.00
19624;BME280;9959;49.798;9.928;2023-02-13T01:36:32;101768.88;;;0.88;100.00
19624;BME280;9959;49.798;9.928;2023-02-13T01:38:59;101780.84;;;0.81;100.00
19624;BME280;9959;49.798;9.928;2023-02-13T01:41:26;101767.75;;;0.78;100.00
19624;BME280;9959;49.798;9.928;2023-02-13T01:44:00;101766.44;;;0.71;100.00
19624;BME280;9959;49.798;9.928;2023-02-13T01:49:09;101765.88;;;0.80;100.00
19624;BME280;9959;49.798;9.928;2023-02-13T01:51:39;101768.63;;;0.79;100.00
19624;BME280;9959;49.798;9.928;2023-02-13T01:54:09;101763.41;;;0.77;100.00
19624;BME280;9959;49.798;9.928;2023-02-13T01:56:49;101765.88;;;0.80;100.00
19624;BME280;9959;49.798;9.928;2023-02-13T01:59:21;101770.22;;;0.67;100.00
19624;BME280;9959;49.798;9.928;2023-02-13T02:01:49;101768.72;;;0.63;100.00
19624;BME280;9959;49.798;9.928;2023-02-13T02:04:25;101766.72;;;0.66;100.00
19624;BME280;9959;49.798;9.928;2023-02-13T02:07:01;101776.09;;;0.72;100.00
19624;BME280;9959;49.798;9.928;2023-02-13T02:09:33;101767.75;;;0.78;100.00
19624;BME280;9959;49.798;9.928;2023-02-13T02:14:49;101774.78;;;0.79;100.00
19624;BME280;9959;49.798;9.928;2023-02-13T02:17:18;101779.66;;;0.85;100.00
19624;BME280;9959;49.798;9.928;2023-02-13T02:22:35;101767.66;;;0.80;100.00
19624;BME280;9959;49.798;9.928;2023-02-13T02:28:42;101770.00;;;0.84;100.00
19624;BME280;9959;49.798;9.928;2023-02-13T02:34:11;101769.22;;;0.96;100.00
19624;BME280;9959;49.798;9.928;2023-02-13T02:42:37;101769.13;;;0.98;100.00
19624;BME280;9959;49.798;9.928;2023-02-13T02:45:22;101765.38;;;1.15;100.00
19624;BME280;9959;49.798;9.928;2023-02-13T02:50:56;101768.34;;;1.10;100.00
19624;BME280;9959;49.798;9.928;2023-02-13T02:53:45;101768.41;;;1.23;100.00
19624;BME280;9959;49.798;9.928;2023-02-13T02:56:20;101768.78;;;1.17;100.00
19624;BME280;9959;49.798;9.928;2023-02-13T03:01:43;101770.50;;;1.18;100.00
19624;BME280;9959;49.798;9.928;2023-02-13T03:04:31;101773.53;;;1.12;100.00
19624;BME280;9959;49.798;9.928;2023-02-13T03:07:19;101767.09;;;1.16;100.00
19624;BME280;9959;49.798;9.928;2023-02-13T03:09:49;101770.69;;;1.15;100.00
19624;BME280;9959;49.798;9.928;2023-02-13T03:12:23;101771.13;;;1.09;100.00
19624;BME280;9959;49.798;9.928;2023-02-13T03:15:11;101768.66;;;1.06;100.00
19624;BME280;9959;49.798;9.928;2023-02-13T03:17:38;101769.19;;;1.11;100.00
19624;BME280;9959;49.798;9.928;2023-02-13T03:23:33;101766.13;;;1.17;100.00
19624;BME280;9959;49.798;9.928;2023-02-13T03:31:37;101767.56;;;1.22;100.00
19624;BME280;9959;49.798;9.928;2023-02-13T03:34:12;101769.19;;;1.11;100.00
19624;BME280;9959;49.798;9.928;2023-02-13T03:39:37;101773.22;;;1.04;100.00
19624;BME280;9959;49.798;9.928;2023-02-13T03:45:27;101770.94;;;0.97;100.00
19624;BME280;9959;49.798;9.928;2023-02-13T03:48:36;101771.88;;;0.96;100.00
19624;BME280;9959;49.798;9.928;2023-02-13T03:51:28;101770.00;;;0.98;100.00
19624;BME280;9959;49.798;9.928;2023-02-13T03:54:04;101774.50;;;1.11;100.00
19624;BME280;9959;49.798;9.928;2023-02-13T03:56:34;101772.22;;;1.19;100.00
19624;BME280;9959;49.798;9.928;2023-02-13T03:59:33;101771.53;;;1.15;100.00
19624;BME280;9959;49.798;9.928;2023-02-13T04:02:11;101772.22;;;1.19;100.00
19624;BME280;9959;49.798;9.928;2023-02-13T04:07:23;101777.50;;;1.19;100.00
19624;BME280;9959;49.798;9.928;2023-02-13T04:10:03;101780.56;;;1.13;100.00
19624;BME280;9959;49.798;9.928;2023-02-13T04:15:42;101783.28;;;0.84;100.00
19624;BME280;9959;49.798;9.928;2023-02-13T04:18:27;101781.19;;;0.89;100.00
19624;BME280;9959;49.798;9.928;2023-02-13T04:20:55;101782.22;;;0.87;100.00
19624;BME280;9959;49.798;9.928;2023-02-13T04:23:20;101782.41;;;0.84;100.00
19624;BME280;9959;49.798;9.928;2023-02-13T04:25:49;101784.78;;;1.02;100.00
19624;BME280;9959;49.798;9.928;2023-02-13T04:28:20;101785.56;;;0.76;100.00
19624;BME280;9959;49.798;9.928;2023-02-13T04:30:47;101789.78;;;1.07;100.00
19624;BME280;9959;49.798;9.928;2023-02-13T04:33:16;101792.75;;;1.02;100.00
19624;BME280;9959;49.798;9.928;2023-02-13T04:35:43;101787.03;;;1.09;100.00
19624;BME280;9959;49.798;9.928;2023-02-13T04:38:10;101786.66;;;1.00;100.00
19624;BME280;9959;49.798;9.928;2023-02-13T04:40:39;101785.69;;;1.16;100.00
19624;BME280;9959;49.798;9.928;2023-02-13T04:43:07;101789.94;;;1.18;100.00
19624;BME280;9959;49.798;9.928;2023-02-13T04:45:34;101793.31;;;0.93;100.00
19624;BME280;9959;49.798;9.928;2023-02-13T04:48:00;101794.44;;;1.04;100.00
19624;BME280;9959;49.798;9.928;2023-02-13T04:50:27;101789.56;;;1.10;100.00
19624;BME280;9959;49.798;9.928;2023-02-13T04:52:55;101795.72;;;1.11;100.00
19624;BME280;9959;49.798;9.928;2023-02-13T04:55:24;101786.06;;;1.10;100.00
19624;BME280;9959;49.798;9.928;2023-02-13T04:57:53;101789.88;;;1.06;100.00
19624;BME280;9959;49.798;9.928;2023-02-13T05:00:21;101781.94;;;1.06;100.00
19624;BME280;9959;49.798;9.928;2023-02-13T05:02:53;101794.44;;;1.04;100.00
19624;BME280;9959;49.798;9.928;2023-02-13T05:05:23;101792.44;;;1.07;100.00
19624;BME280;9959;49.798;9.928;2023-02-13T05:07:50;101795.63;;;1.12;100.00
19624;BME280;9959;49.798;9.928;2023-02-13T05:10:17;101795.41;;;0.88;100.00
19624;BME280;9959;49.798;9.928;2023-02-13T05:12:44;101795.00;;;1.09;100.00
19624;BME280;9959;49.798;9.928;2023-02-13T05:15:11;101796.47;;;1.13;100.00
19624;BME280;9959;49.798;9.928;2023-02-13T05:17:38;101793.84;;;1.13;100.00
19624;BME280;9959;49.798;9.928;2023-02-13T05:20:05;101791.59;;;0.92;100.00
19624;BME280;9959;49.798;9.928;2023-02-13T05:22:32;101793.88;;;0.84;100.00
19624;BME280;9959;49.798;9.928;2023-02-13T05:25:17;101795.19;;;1.06;100.00
19624;BME280;9959;49.798;9.928;2023-02-13T05:27:44;101793.84;;;1.13;100.00
19624;BME280;9959;49.798;9.928;2023-02-13T05:30:12;101800.69;;;1.02;100.00
19624;BME280;9959;49.798;9.928;2023-02-13T05:32:39;101797.84;;;1.06;100.00
19624;BME280;9959;49.798;9.928;2023-02-13T05:35:08;101799.84;;;1.02;100.00
19624;BME280;9959;49.798;9.928;2023-02-13T05:37:35;101795.91;;;0.81;100.00
19624;BME280;9959;49.798;9.928;2023-02-13T05:40:02;101799.09;;;1.00;100.00
19624;BME280;9959;49.798;9.928;2023-02-13T05:42:32;101805.16;;;0.88;100.00
19624;BME280;9959;49.798;9.928;2023-02-13T05:44:59;101804.59;;;0.97;100.00
19624;BME280;9959;49.798;9.928;2023-02-13T05:47:25;101803.94;;;0.93;100.00
19624;BME280;9959;49.798;9.928;2023-02-13T05:49:52;101806.75;;;1.05;100.00
19624;BME280;9959;49.798;9.928;2023-02-13T05:52:27;101799.94;;;1.00;100.00
19624;BME280;9959;49.798;9.928;2023-02-13T05:54:53;101807.38;;;0.81;100.00
19624;BME280;9959;49.798;9.928;2023-02-13T05:57:20;101806.09;;;1.01;100.00
19624;BME280;9959;49.798;9.928;2023-02-13T05:59:47;101802.13;;;0.94;100.00
19624;BME280;9959;49.798;9.928;2023-02-13T06:02:14;101815.50;;;0.64;100.00
19624;BME280;9959;49.798;9.928;2023-02-13T06:04:43;101813.50;;;0.96;100.00
19624;BME280;9959;49.798;9.928;2023-02-13T06:07:09;101820.41;;;0.98;100.00
19624;BME280;9959;49.798;9.928;2023-02-13T06:09:37;101816.91;;;0.98;100.00
19624;BME280;9959;49.798;9.928;2023-02-13T06:12:04;101823.44;;;0.92;100.00
19624;BME280;9959;49.798;9.928;2023-02-13T06:14:30;101827.25;;;1.02;100.00
19624;BME280;9959;49.798;9.928;2023-02-13T06:16:59;101827.53;;;0.84;100.00
19624;BME280;9959;49.798;9.928;2023-02-13T06:19:26;101826.84;;;0.94;100.00
19624;BME280;9959;49.798;9.928;2023-02-13T06:21:53;101829.88;;;0.88;100.00
19624;BME280;9959;49.798;9.928;2023-02-13T06:24:20;101824.97;;;0.96;100.00
19624;BME280;9959;49.798;9.928;2023-02-13T06:26:47;101826.94;;;1.07;100.00
19624;BME280;9959;49.798;9.928;2023-02-13T06:29:13;101831.41;;;1.07;100.00
19624;BME280;9959;49.798;9.928;2023-02-13T06:31:40;101819.28;;;1.02;100.00
19624;BME280;9959;49.798;9.928;2023-02-13T06:34:10;101822.88;;;1.01;100.00
19624;BME280;9959;49.798;9.928;2023-02-13T06:36:37;101829.59;;;1.07;100.00
19624;BME280;9959;49.798;9.928;2023-02-13T06:39:04;101834.63;;;0.97;100.00
19624;BME280;9959;49.798;9.928;2023-02-13T06:41:31;101833.66;;;1.13;100.00
19624;BME280;9959;49.798;9.928;2023-02-13T06:43:58;101833.34;;;1.17;100.00
19624;BME280;9959;49.798;9.928;2023-02-13T06:46:24;101837.66;;;0.91;100.00
19624;BME280;9959;49.798;9.928;2023-02-13T06:48:51;101842.31;;;0.88;100.00
19624;BME280;9959;49.798;9.928;2023-02-13T06:51:18;101846.56;;;0.90;100.00
19624;BME280;9959;49.798;9.928;2023-02-13T06:53:45;101840.88;;;0.96;100.00
19624;BME280;9959;49.798;9.928;2023-02-13T06:56:12;101845.06;;;0.86;100.00
19624;BME280;9959;49.798;9.928;2023-02-13T06:58:38;101841.63;;;1.13;100.00
19624;BME280;9959;49.798;9.928;2023-02-13T07:01:05;101835.22;;;0.74;100.00
19624;BME280;9959;49.798;9.928;2023-02-13T07:03:32;101846.00;;;0.99;100.00
19624;BME280;9959;49.798;9.928;2023-02-13T07:05:59;101846.38;;;0.93;100.00
19624;BME280;9959;49.798;9.928;2023-02-13T07:08:26;101848.63;;;1.14;100.00
19624;BME280;9959;49.798;9.928;2023-02-13T07:10:53;101850.44;;;1.13;100.00
19624;BME280;9959;49.798;9.928;2023-02-13T07:13:20;101847.53;;;1.04;100.00
19624;BME280;9959;49.798;9.928;2023-02-13T07:15:50;101848.81;;;1.11;100.00
19624;BME280;9959;49.798;9.928;2023-02-13T07:18:17;101847.72;;;1.00;100.00
19624;BME280;9959;49.798;9.928;2023-02-13T07:20:44;101852.34;;;0.97;100.00
19624;BME280;9959;49.798;9.928;2023-02-13T07:23:10;101859.56;;;0.95;100.00
19624;BME280;9959;49.798;9.928;2023-02-13T07:25:37;101853.41;;;0.94;100.00
19624;BME280;9959;49.798;9.928;2023-02-13T07:28:05;101854.44;;;0.92;100.00
19624;BME280;9959;49.798;9.928;2023-02-13T07:30:33;101856.25;;;1.06;100.00
19624;BME280;9959;49.798;9.928;2023-02-13T07:33:01;101857.53;;;1.13;100.00
19624;BME280;9959;49.798;9.928;2023-02-13T07:35:31;101856.25;;;1.06;100.00
19624;BME280;9959;49.798;9.928;2023-02-13T07:37:58;101857.00;;;0.93;100.00
19624;BME280;9959;49.798;9.928;2023-02-13T07:40:26;101859.19;;;1.01;100.00
19624;BME280;9959;49.798;9.928;2023-02-13T07:42:54;101860.59;;;0.92;100.00
19624;BME280;9959;49.798;9.928;2023-02-13T07:45:23;101864.28;;;1.18;100.00
19624;BME280;9959;49.798;9.928;2023-02-13T07:47:50;101862.84;;;1.13;100.00
19624;BME280;9959;49.798;9.928;2023-02-13T07:50:17;101865.91;;;0.92;100.00
19624;BME280;9959;49.798;9.928;2023-02-13T07:52:43;101861.16;;;0.83;100.00
19624;BME280;9959;49.798;9.928;2023-02-13T07:55:10;101875.28;;;0.98;100.00
19624;BME280;9959;49.798;9.928;2023-02-13T07:57:38;101877.53;;;1.18;100.00
19624;BME280;9959;49.798;9.928;2023-02-13T08:00:08;101864.38;;;1.17;100.00
19624;BME280;9959;49.798;9.928;2023-02-13T08:02:38;101864.38;;;1.17;100.00
19624;BME280;9959;49.798;9.928;2023-02-13T08:05:05;101871.03;;;0.95;100.00
19624;BME280;9959;49.798;9.928;2023-02-13T08:07:32;101870.19;;;0.95;100.00
19624;BME280;9959;49.798;9.928;2023-02-13T08:09:59;101871.97;;;0.94;100.00
19624;BME280;9959;49.798;9.928;2023-02-13T08:12:44;101872.63;;;0.98;100.00
19624;BME280;9959;49.798;9.928;2023-02-13T08:15:13;101860.19;;;1.13;100.00
19624;BME280;9959;49.798;9.928;2023-02-13T08:17:41;101864.59;;;0.99;100.00
19624;BME280;9959;49.798;9.928;2023-02-13T08:20:08;101867.97;;;1.30;100.00
19624;BME280;9959;49.798;9.928;2023-02-13T08:22:36;101868.25;;;1.25;100.00
19624;BME280;9959;49.798;9.928;2023-02-13T08:25:04;101865.88;;;1.21;100.00
19624;BME280;9959;49.798;9.928;2023-02-13T08:27:31;101873.47;;;1.27;100.00
19624;BME280;9959;49.798;9.928;2023-02-13T08:30:00;101874.03;;;1.32;100.00
19624;BME280;9959;49.798;9.928;2023-02-13T08:32:28;101878.13;;;1.09;100.00
19624;BME280;9959;49.798;9.928;2023-02-13T08:34:55;101883.50;;;1.22;100.00
19624;BME280;9959;49.798;9.928;2023-02-13T08:37:23;101879.75;;;0.97;100.00
19624;BME280;9959;49.798;9.928;2023-02-13T08:39:50;101881.06;;;1.05;100.00
19624;BME280;9959;49.798;9.928;2023-02-13T08:42:17;101881.91;;;1.19;100.00
19624;BME280;9959;49.798;9.928;2023-02-13T08:44:43;101887.13;;;1.21;100.00
19624;BME280;9959;49.798;9.928;2023-02-13T08:47:10;101885.22;;;1.23;100.00
19624;BME280;9959;49.798;9.928;2023-02-13T08:49:37;101886.53;;;1.30;100.00
19624;BME280;9959;49.798;9.928;2023-02-13T08:52:04;101883.16;;;0.99;100.00
19624;BME280;9959;49.798;9.928;2023-02-13T08:54:33;101891.19;;;1.12;100.00
19624;BME280;9959;49.798;9.928;2023-02-13T08:57:01;101883.44;;;1.09;100.00
19624;BME280;9959;49.798;9.928;2023-02-13T08:59:27;101889.78;;;1.21;100.00
19624;BME280;9959;49.798;9.928;2023-02-13T09:04:23;101882.75;;;1.34;100.00
19624;BME280;9959;49.798;9.928;2023-02-13T09:06:49;101882.44;;;1.65;100.00
19624;BME280;9959;49.798;9.928;2023-02-13T09:09:16;101881.94;;;1.46;100.00
19624;BME280;9959;49.798;9.928;2023-02-13T09:11:43;101885.41;;;1.20;100.00
19624;BME280;9959;49.798;9.928;2023-02-13T09:14:10;101884.03;;;1.41;100.00
19624;BME280;9959;49.798;9.928;2023-02-13T09:16:36;101883.31;;;1.66;100.00
19624;BME280;9959;49.798;9.928;2023-02-13T09:19:03;101880.38;;;1.29;100.00
19624;BME280;9959;49.798;9.928;2023-02-13T09:21:30;101892.56;;;1.46;100.00
19624;BME280;9959;49.798;9.928;2023-02-13T09:23:57;101889.53;;;1.52;100.00
19624;BME280;9959;49.798;9.928;2023-02-13T09:26:24;101890.47;;;1.51;100.00
19624;BME280;9959;49.798;9.928;2023-02-13T09:28:51;101890.22;;;1.68;100.00
19624;BME280;9959;49.798;9.928;2023-02-13T09:31:19;101893.84;;;1.67;100.00
19624;BME280;9959;49.798;9.928;2023-02-13T09:33:49;101896.06;;;1.88;100.00
19624;BME280;9959;49.798;9.928;2023-02-13T09:36:19;101890.66;;;1.89;100.00
19624;BME280;9959;49.798;9.928;2023-02-13T09:38:47;101901.31;;;2.02;100.00
19624;BME280;9959;49.798;9.928;2023-02-13T09:41:24;101900.75;;;1.97;100.00
19624;BME280;9959;49.798;9.928;2023-02-13T09:43:54;101905.31;;;1.95;100.00
19624;BME280;9959;49.798;9.928;2023-02-13T09:51:24;101905.69;;;2.43;100.00
19624;BME280;9959;49.798;9.928;2023-02-13T10:01:51;101898.72;;;2.27;100.00
19624;BME280;9959;49.798;9.928;2023-02-13T10:04:28;101898.16;;;2.22;100.00
19624;BME280;9959;49.798;9.928;2023-02-13T10:07:12;101901.38;;;2.15;100.00
19624;BME280;9959;49.798;9.928;2023-02-13T10:18:05;101900.75;;;2.36;100.00
19624;BME280;9959;49.798;9.928;2023-02-13T10:20:44;101896.09;;;2.53;100.00
19624;BME280;9959;49.798;9.928;2023-02-13T10:23:26;101896.56;;;2.72;99.09
19624;BME280;9959;49.798;9.928;2023-02-13T10:28:45;101892.81;;;2.75;98.47
19624;BME280;9959;49.798;9.928;2023-02-13T10:31:21;101898.81;;;2.26;100.00
19624;BME280;9959;49.798;9.928;2023-02-13T10:33:51;101893.44;;;2.53;100.00
19624;BME280;9959;49.798;9.928;2023-02-13T10:36:21;101894.16;;;2.29;100.00
19624;BME280;9959;49.798;9.928;2023-02-13T10:41:49;101897.34;;;2.34;100.00
19624;BME280;9959;49.798;9.928;2023-02-13T10:55:51;101872.53;;;3.23;96.56
19624;BME280;9959;49.798;9.928;2023-02-13T11:01:22;101862.69;;;3.36;95.15
19624;BME280;9959;49.798;9.928;2023-02-13T11:06:22;101854.47;;;3.39;94.67
19624;BME280;9959;49.798;9.928;2023-02-13T11:08:49;101855.31;;;3.87;92.94
19624;BME280;9959;49.798;9.928;2023-02-13T11:11:38;101862.00;;;3.82;92.33
19624;BME280;9959;49.798;9.928;2023-02-13T11:14:19;101853.25;;;4.15;91.20
19624;BME280;9959;49.798;9.928;2023-02-13T11:19:33;101855.19;;;3.78;92.83
19624;BME280;9959;49.798;9.928;2023-02-13T11:24:31;101850.78;;;4.35;89.82
19624;BME280;9959;49.798;9.928;2023-02-13T11:27:01;101853.88;;;4.18;89.50
19624;BME280;9959;49.798;9.928;2023-02-13T11:29:32;101852.16;;;4.17;90.28
19624;BME280;9959;49.798;9.928;2023-02-13T11:32:09;101843.13;;;3.96;90.67
19624;BME280;9959;49.798;9.928;2023-02-13T11:34:47;101851.88;;;3.50;93.37
19624;BME280;9959;49.798;9.928;2023-02-13T11:39:51;101853.13;;;4.16;90.96
19624;BME280;9959;49.798;9.928;2023-02-13T11:42:23;101855.50;;;3.97;91.54
19624;BME280;9959;49.798;9.928;2023-02-13T11:47:49;101849.03;;;4.23;90.61
19624;BME280;9959;49.798;9.928;2023-02-13T11:55:29;101837.91;;;4.40;90.95
19624;BME280;9959;49.798;9.928;2023-02-13T11:58:01;101838.34;;;5.68;84.52
19624;BME280;9959;49.798;9.928;2023-02-13T12:00:30;101837.56;;;5.23;85.42
19624;BME280;9959;49.798;9.928;2023-02-13T12:08:24;101835.28;;;4.74;87.66
19624;BME280;9959;49.798;9.928;2023-02-13T12:10:51;101830.38;;;7.53;74.30
19624;BME280;9959;49.798;9.928;2023-02-13T12:13:30;101822.66;;;9.10;67.12
19624;BME280;9959;49.798;9.928;2023-02-13T12:16:01;101823.53;;;10.09;62.33
19624;BME280;9959;49.798;9.928;2023-02-13T12:18:35;101826.50;;;11.02;58.70
19624;BME280;9959;49.798;9.928;2023-02-13T12:26:52;101814.16;;;12.08;53.48
19624;BME280;9959;49.798;9.928;2023-02-13T12:29:31;101816.06;;;12.87;52.92
19624;BME280;9959;49.798;9.928;2023-02-13T12:32:17;101815.44;;;12.77;53.91
19624;BME280;9959;49.798;9.928;2023-02-13T12:54:39;101780.59;;;12.82;52.36
19624;BME280;9959;49.798;9.928;2023-02-13T13:08:21;101765.56;;;13.18;52.04
19624;BME280;9959;49.798;9.928;2023-02-13T13:13:34;101760.34;;;12.62;52.97
19624;BME280;9959;49.798;9.928;2023-02-13T13:19:23;101745.03;;;12.93;51.41
19624;BME280;9959;49.798;9.928;2023-02-13T13:24:46;101744.53;;;11.53;55.20
19624;BME280;9959;49.798;9.928;2023-02-13T13:27:40;101734.41;;;13.23;52.27
19624;BME280;9959;49.798;9.928;2023-02-13T13:30:28;101735.94;;;13.71;49.88
19624;BME280;9959;49.798;9.928;2023-02-13T13:35:23;101736.22;;;13.99;48.64
19624;BME280;9959;49.798;9.928;2023-02-13T13:37:55;101728.38;;;14.41;49.29
19624;BME280;9959;49.798;9.928;2023-02-13T13:48:43;101720.19;;;12.42;53.61
19624;BME280;9959;49.798;9.928;2023-02-13T13:51:15;101729.50;;;13.95;49.45
19624;BME280;9959;49.798;9.928;2023-02-13T13:56:23;101718.09;;;13.08;51.76
19624;BME280;9959;49.798;9.928;2023-02-13T13:58:52;101712.19;;;13.58;50.59
19624;BME280;9959;49.798;9.928;2023-02-13T14:01:24;101709.03;;;13.92;49.09
19624;BME280;9959;49.798;9.928;2023-02-13T14:03:55;101708.75;;;14.02;48.98
19624;BME280;9959;49.798;9.928;2023-02-13T14:09:06;101704.75;;;12.98;51.69
19624;BME280;9959;49.798;9.928;2023-02-13T14:19:33;101705.28;;;14.45;49.15
19624;BME280;9959;49.798;9.928;2023-02-13T14:27:37;101698.38;;;14.43;49.73
19624;BME280;9959;49.798;9.928;2023-02-13T14:30:21;101690.06;;;13.32;52.22
19624;BME280;9959;49.798;9.928;2023-02-13T14:32:51;101685.72;;;14.65;49.36
19624;BME280;9959;49.798;9.928;2023-02-13T14:35:24;101686.78;;;13.59;50.67
19624;BME280;9959;49.798;9.928;2023-02-13T14:43:16;101685.78;;;14.12;49.62
19624;BME280;9959;49.798;9.928;2023-02-13T14:51:40;101675.66;;;13.54;52.98
19624;BME280;9959;49.798;9.928;2023-02-13T14:56:53;101666.53;;;13.32;52.26
19624;BME280;9959;49.798;9.928;2023-02-13T14:59:26;101667.78;;;13.13;53.62
19624;BME280;9959;49.798;9.928;2023-02-13T15:02:01;101670.28;;;12.61;55.09
19624;BME280;9959;49.798;9.928;2023-02-13T15:04:40;101665.25;;;14.77;49.76
19624;BME280;9959;49.798;9.928;2023-02-13T15:07:20;101667.50;;;13.08;53.35
19624;BME280;9959;49.798;9.928;2023-02-13T15:09:52;101662.59;;;12.42;55.93
19624;BME280;9959;49.798;9.928;2023-02-13T15:12:33;101662.72;;;11.77;57.92
19624;BME280;9959;49.798;9.928;2023-02-13T15:15:06;101668.88;;;10.12;65.37
19624;BME280;9959;49.798;9.928;2023-02-13T15:17:43;101662.78;;;9.23;69.92
19624;BME280;9959;49.798;9.928;2023-02-13T15:20:23;101665.84;;;8.92;71.57
19624;BME280;9959;49.798;9.928;2023-02-13T15:22:52;101662.81;;;8.13;75.97
19624;BME280;9959;49.798;9.928;2023-02-13T15:25:24;101660.22;;;8.21;76.54
19624;BME280;9959;49.798;9.928;2023-02-13T15:27:55;101672.16;;;8.09;77.30
19624;BME280;9959;49.798;9.928;2023-02-13T15:30:29;101661.84;;;10.19;68.46
19624;BME280;9959;49.798;9.928;2023-02-13T15:33:02;101649.72;;;11.56;61.56
19624;BME280;9959;49.798;9.928;2023-02-13T15:35:32;101663.22;;;11.32;61.69
19624;BME280;9959;49.798;9.928;2023-02-13T15:38:31;101652.41;;;11.24;62.37
19624;BME280;9959;49.798;9.928;2023-02-13T15:41:05;101654.91;;;12.14;59.05
19624;BME280;9959;49.798;9.928;2023-02-13T15:46:25;101657.16;;;11.78;60.19
19624;BME280;9959;49.798;9.928;2023-02-13T15:48:54;101661.66;;;11.05;62.79
19624;BME280;9959;49.798;9.928;2023-02-13T15:51:26;101662.66;;;10.88;63.75
19624;BME280;9959;49.798;9.928;2023-02-13T15:56:24;101659.41;;;10.34;65.32
19624;BME280;9959;49.798;9.928;2023-02-13T15:58:52;101660.94;;;8.60;74.22
19624;BME280;9959;49.798;9.928;2023-02-13T16:01:20;101660.84;;;8.15;78.02
19624;BME280;9959;49.798;9.928;2023-02-13T16:06:23;101654.06;;;7.64;80.43
19624;BME280;9959;49.798;9.928;2023-02-13T16:08:52;101654.19;;;7.14;83.49
19624;BME280;9959;49.798;9.928;2023-02-13T16:11:38;101657.56;;;6.78;85.83
19624;BME280;9959;49.798;9.928;2023-02-13T16:14:09;101660.34;;;6.67;87.17
19624;BME280;9959;49.798;9.928;2023-02-13T16:16:50;101660.03;;;6.51;88.54
19624;BME280;9959;49.798;9.928;2023-02-13T16:19:44;101658.28;;;6.40;89.45
19624;BME280;9959;49.798;9.928;2023-02-13T16:22:36;101658.56;;;6.37;89.54
19624;BME280;9959;49.798;9.928;2023-02-13T16:25:27;101660.50;;;6.25;90.72
19624;BME280;9959;49.798;9.928;2023-02-13T16:27:59;101658.16;;;6.11;91.82
19624;BME280;9959;49.798;9.928;2023-02-13T16:33:20;101661.97;;;5.88;94.00
19624;BME280;9959;49.798;9.928;2023-02-13T16:38:39;101662.69;;;5.69;95.63
19624;BME280;9959;49.798;9.928;2023-02-13T16:43:50;101658.63;;;5.54;97.36
19624;BME280;9959;49.798;9.928;2023-02-13T16:46:32;101666.19;;;5.49;98.02
19624;BME280;9959;49.798;9.928;2023-02-13T16:59:51;101673.28;;;5.18;100.00
19624;BME280;9959;49.798;9.928;2023-02-13T17:02:35;101673.44;;;5.05;100.00
19624;BME280;9959;49.798;9.928;2023-02-13T17:07:44;101678.59;;;4.86;100.00
19624;BME280;9959;49.798;9.928;2023-02-13T17:13:01;101671.94;;;4.80;100.00
19624;BME280;9959;49.798;9.928;2023-02-13T17:15:41;101671.09;;;4.80;100.00
19624;BME280;9959;49.798;9.928;2023-02-13T17:18:09;101678.13;;;4.69;100.00
19624;BME280;9959;49.798;9.928;2023-02-13T17:20:37;101685.44;;;4.45;100.00